createdAt,value
2022-08-19T00:02:13.574Z,69.04
2022-08-19T00:04:43.416Z,68.76
2022-08-19T00:07:13.300Z,69.34
2022-08-19T00:09:43.089Z,69.00
2022-08-19T00:12:13.436Z,68.80
2022-08-19T00:14:43.553Z,68.80
2022-08-19T00:17:13.916Z,69.60
2022-08-19T00:19:43.435Z,69.41
2022-08-19T00:22:12.913Z,68.84
2022-08-19T00:24:44.437Z,68.95
2022-08-19T00:27:26.238Z,68.82
2022-08-19T00:29:52.447Z,69.18
2022-08-19T00:32:19.419Z,69.66
2022-08-19T00:34:49.206Z,69.60
2022-08-19T00:37:18.986Z,69.75
2022-08-19T00:39:49.059Z,69.32
2022-08-19T00:42:20.230Z,68.70
2022-08-19T00:44:51.333Z,68.57
2022-08-19T00:47:21.109Z,69.00
2022-08-19T00:49:54.018Z,69.45
2022-08-19T00:52:33.300Z,69.98
2022-08-19T00:55:04.715Z,69.40
2022-08-19T00:57:40.138Z,69.87
2022-08-19T01:00:14.808Z,70.16
2022-08-19T01:02:45.321Z,70.49
2022-08-19T01:05:19.458Z,70.68
2022-08-19T01:07:51.779Z,70.47
2022-08-19T01:10:24.535Z,70.97
2022-08-19T01:12:55.851Z,71.48
2022-08-19T01:15:31.418Z,71.61
2022-08-19T01:18:04.010Z,71.51
2022-08-19T01:20:35.227Z,71.46
2022-08-19T01:23:05.776Z,71.34
2022-08-19T01:25:38.925Z,71.75
2022-08-19T01:28:32.198Z,71.78
2022-08-19T01:30:51.585Z,71.55
2022-08-19T01:33:21.535Z,71.28
2022-08-19T01:35:52.342Z,71.62
2022-08-19T01:38:28.011Z,71.90
2022-08-19T01:40:57.489Z,72.13
2022-08-19T01:43:27.562Z,72.03
2022-08-19T01:45:57.411Z,71.82
2022-08-19T01:48:27.558Z,71.49
2022-08-19T01:50:57.499Z,71.55
2022-08-19T01:53:33.549Z,70.98
2022-08-19T01:55:59.810Z,71.05
2022-08-19T01:58:33.313Z,71.80
2022-08-19T02:01:03.679Z,72.90
2022-08-19T02:03:33.507Z,73.23
2022-08-19T02:06:05.988Z,72.43
2022-08-19T02:08:38.958Z,72.18
2022-08-19T02:11:09.299Z,71.42
2022-08-19T02:13:39.045Z,72.07
2022-08-19T02:16:11.355Z,72.07
2022-08-19T02:18:41.137Z,72.59
2022-08-19T02:21:11.738Z,73.22
2022-08-19T02:23:41.526Z,72.55
2022-08-19T02:26:13.250Z,72.42
2022-08-19T02:28:44.065Z,72.06
2022-08-19T02:31:16.287Z,71.69
2022-08-19T02:33:47.282Z,72.05
2022-08-19T02:36:20.591Z,72.05
2022-08-19T02:38:55.025Z,71.90
2022-08-19T02:41:26.806Z,72.42
2022-08-19T02:44:30.112Z,73.09
2022-08-19T02:46:34.889Z,72.67
2022-08-19T02:49:07.010Z,72.91
2022-08-19T02:51:42.431Z,72.87
2022-08-19T02:54:14.567Z,73.01
2022-08-19T02:56:46.042Z,72.77
2022-08-19T02:59:15.874Z,72.81
2022-08-19T03:01:45.691Z,73.07
2022-08-19T03:04:16.796Z,73.30
2022-08-19T03:06:49.319Z,73.13
2022-08-19T03:09:21.250Z,73.05
2022-08-19T03:11:52.694Z,73.17
2022-08-19T03:14:24.065Z,73.20
2022-08-19T03:16:54.525Z,72.86
2022-08-19T03:19:24.051Z,72.97
2022-08-19T03:21:54.233Z,73.05
2022-08-19T03:24:24.115Z,72.71
2022-08-19T03:29:48.783Z,72.89
2022-08-19T03:32:32.142Z,73.11
2022-08-19T03:34:51.810Z,72.31
2022-08-19T03:37:21.652Z,72.38
2022-08-19T03:39:51.513Z,72.93
2022-08-19T03:42:38.608Z,74.71
2022-08-19T03:44:53.468Z,74.59
2022-08-19T03:47:23.309Z,73.85
2022-08-19T03:49:53.165Z,74.05
2022-08-19T03:52:22.730Z,74.05
2022-08-19T03:54:52.567Z,73.58
2022-08-19T03:57:27.811Z,74.07
2022-08-19T03:59:53.840Z,74.05
2022-08-19T04:02:23.355Z,74.81
2022-08-19T04:04:56.007Z,74.23
2022-08-19T04:07:25.789Z,74.13
2022-08-19T04:09:55.626Z,74.27
2022-08-19T04:12:25.423Z,75.42
2022-08-19T04:14:55.213Z,75.12
2022-08-19T04:17:24.994Z,73.72
2022-08-19T04:19:55.124Z,74.14
2022-08-19T04:22:24.897Z,73.96
2022-08-19T04:24:56.369Z,74.09
2022-08-19T04:27:27.375Z,74.19
2022-08-19T04:29:57.167Z,73.69
2022-08-19T04:32:26.778Z,73.27
2022-08-19T04:35:02.460Z,74.03
2022-08-19T04:37:35.321Z,73.95
2022-08-19T04:40:21.068Z,74.08
2022-08-19T04:42:50.867Z,73.84
2022-08-19T04:45:22.841Z,72.98
2022-08-19T04:47:58.996Z,73.65
2022-08-19T04:50:29.318Z,73.84
2022-08-19T04:52:59.109Z,74.72
2022-08-19T04:55:29.271Z,75.05
2022-08-19T04:57:59.126Z,75.31
2022-08-19T05:00:29.652Z,75.05
2022-08-19T05:02:59.446Z,75.26
2022-08-19T05:05:31.974Z,75.57
2022-08-19T05:08:03.537Z,75.48
2022-08-19T05:10:33.611Z,75.52
2022-08-19T05:13:03.564Z,75.86
2022-08-19T05:15:33.716Z,74.35
2022-08-19T05:18:21.402Z,75.22
2022-08-19T05:21:08.901Z,75.45
2022-08-19T05:23:39.075Z,75.32
2022-08-19T05:26:11.873Z,76.47
2022-08-19T05:28:41.674Z,75.53
2022-08-19T05:31:11.954Z,75.53
2022-08-19T05:33:42.304Z,76.62
2022-08-19T05:36:12.057Z,76.86
2022-08-19T05:38:42.117Z,76.83
2022-08-19T05:41:14.587Z,76.52
2022-08-19T05:43:44.397Z,76.25
2022-08-19T05:46:19.540Z,75.83
2022-08-19T05:48:51.289Z,76.63
2022-08-19T05:51:27.275Z,76.27
2022-08-19T05:53:54.922Z,76.96
2022-08-19T05:56:24.700Z,77.25
2022-08-19T05:58:55.032Z,76.90
2022-08-19T06:01:24.817Z,77.28
2022-08-19T06:03:55.195Z,76.97
2022-08-19T06:06:24.717Z,76.97
2022-08-19T06:08:54.495Z,76.51
2022-08-19T06:11:27.625Z,75.66
2022-08-19T06:13:59.850Z,75.98
2022-08-19T06:16:31.750Z,75.68
2022-08-19T06:19:02.784Z,74.63
2022-08-19T06:21:33.836Z,74.50
2022-08-19T06:24:03.868Z,74.87
2022-08-19T06:26:35.611Z,75.88
2022-08-19T06:29:07.463Z,74.90
2022-08-19T06:31:37.988Z,74.27
2022-08-19T06:34:10.364Z,74.21
2022-08-19T06:36:45.767Z,72.51
2022-08-19T06:39:21.937Z,73.18
2022-08-19T06:41:56.799Z,72.34
2022-08-19T06:44:27.217Z,71.82
2022-08-19T06:46:57.834Z,71.46
2022-08-19T06:49:29.252Z,70.71
2022-08-19T06:52:02.032Z,70.68
2022-08-19T06:54:32.202Z,69.69
2022-08-19T06:57:04.284Z,69.21
2022-08-19T06:59:34.943Z,71.03
2022-08-19T07:02:07.413Z,70.03
2022-08-19T07:04:42.085Z,70.31
2022-08-19T07:07:20.151Z,69.29
2022-08-19T07:09:55.354Z,68.14
2022-08-19T07:12:18.134Z,67.09
2022-08-19T07:14:48.202Z,66.42
2022-08-19T07:17:19.260Z,66.08
2022-08-19T07:19:50.403Z,65.89
2022-08-19T07:22:21.453Z,67.46
2022-08-19T07:24:51.715Z,67.41
2022-08-19T07:27:24.786Z,65.69
2022-08-19T07:29:56.309Z,64.50
2022-08-19T07:32:27.747Z,64.50
2022-08-19T07:34:58.006Z,64.14
2022-08-19T07:37:33.135Z,62.45
2022-08-19T07:40:02.503Z,62.50
2022-08-19T07:42:32.496Z,62.24
2022-08-19T07:45:02.616Z,63.84
2022-08-19T07:47:50.424Z,63.76
2022-08-19T07:50:08.181Z,62.65
2022-08-19T07:52:40.297Z,62.54
2022-08-19T07:55:40.478Z,62.36
2022-08-19T08:00:17.606Z,62.96
2022-08-19T08:02:47.842Z,62.37
2022-08-19T08:05:39.638Z,62.25
2022-08-19T08:08:27.719Z,60.83
2022-08-19T08:10:57.728Z,59.27
2022-08-19T08:13:27.825Z,59.35
2022-08-19T08:15:58.959Z,59.34
2022-08-19T08:18:30.409Z,58.57
2022-08-19T08:21:00.915Z,58.59
2022-08-19T08:23:32.451Z,57.45
2022-08-19T08:26:03.117Z,57.43
2022-08-19T08:28:32.960Z,56.87
2022-08-19T08:31:02.458Z,57.22
2022-08-19T08:33:35.183Z,57.18
2022-08-19T08:36:06.933Z,55.83
2022-08-19T08:38:41.034Z,56.24
2022-08-19T08:41:32.388Z,56.05
2022-08-19T08:44:04.389Z,54.29
2022-08-19T08:46:42.910Z,53.00
2022-08-19T08:49:31.661Z,53.49
2022-08-19T08:52:07.248Z,53.91
2022-08-19T08:54:49.100Z,51.88
2022-08-19T08:57:19.550Z,52.51
2022-08-19T08:59:52.705Z,52.38
2022-08-19T09:02:22.485Z,51.39
2022-08-19T09:04:53.401Z,51.40
2022-08-19T09:07:34.813Z,52.46
2022-08-19T09:10:12.512Z,51.08
2022-08-19T09:12:51.740Z,51.83
2022-08-19T09:15:28.856Z,51.44
2022-08-19T09:17:56.334Z,51.09
2022-08-19T09:20:26.529Z,52.54
2022-08-19T09:22:56.260Z,54.52
2022-08-19T09:25:27.120Z,54.53
2022-08-19T09:28:02.950Z,54.53
2022-08-19T09:30:32.215Z,54.18
2022-08-19T09:33:02.301Z,53.60
2022-08-19T09:35:32.626Z,55.33
2022-08-19T09:38:06.630Z,55.68
2022-08-19T09:40:38.594Z,55.91
2022-08-19T09:43:09.902Z,55.58
2022-08-19T09:45:39.966Z,54.69
2022-08-19T09:48:11.748Z,54.58
2022-08-19T09:50:51.585Z,54.37
2022-08-19T09:53:13.284Z,55.36
2022-08-19T09:55:46.166Z,54.97
2022-08-19T09:58:15.731Z,55.15
2022-08-19T10:00:51.620Z,56.07
2022-08-19T10:03:18.381Z,55.91
2022-08-19T10:05:55.164Z,54.97
2022-08-19T10:08:26.714Z,55.70
2022-08-19T10:10:59.155Z,56.86
2022-08-19T10:13:31.354Z,56.86
2022-08-19T10:16:09.999Z,56.14
2022-08-19T10:18:44.286Z,56.75
2022-08-19T10:21:20.801Z,55.88
2022-08-19T10:23:52.607Z,55.86
2022-08-19T10:26:28.319Z,57.00
2022-08-19T10:28:59.223Z,55.94
2022-08-19T10:31:59.958Z,54.57
2022-08-19T10:34:04.018Z,54.09
2022-08-19T10:36:37.168Z,54.90
2022-08-19T10:39:13.220Z,53.68
2022-08-19T10:41:44.233Z,53.19
2022-08-19T10:44:16.950Z,53.30
2022-08-19T10:46:48.929Z,52.62
2022-08-19T10:49:20.179Z,52.58
2022-08-19T10:52:10.317Z,54.67
2022-08-19T10:54:57.092Z,54.33
2022-08-19T10:57:46.020Z,54.19
2022-08-19T11:00:00.442Z,53.37
2022-08-19T11:02:30.218Z,51.70
2022-08-19T11:05:04.856Z,52.41
2022-08-19T11:07:31.482Z,51.82
2022-08-19T11:10:01.275Z,53.16
2022-08-19T11:12:31.056Z,52.38
2022-08-19T11:15:01.588Z,51.17
2022-08-19T11:17:32.455Z,51.67
2022-08-19T11:20:03.946Z,51.61
2022-08-19T11:22:39.045Z,50.20
2022-08-19T11:25:08.649Z,49.86
2022-08-19T11:27:44.497Z,49.38
2022-08-19T11:30:16.839Z,50.54
2022-08-19T11:32:49.369Z,50.20
2022-08-19T11:35:20.252Z,49.88
2022-08-19T11:37:50.075Z,50.49
2022-08-19T11:40:19.702Z,50.78
2022-08-19T11:42:59.178Z,49.95
2022-08-19T11:45:30.303Z,52.00
2022-08-19T11:48:00.075Z,52.00
2022-08-19T11:50:29.935Z,52.06
2022-08-19T11:52:59.510Z,51.69
2022-08-19T11:55:29.087Z,51.96
2022-08-19T11:57:58.773Z,51.96
2022-08-19T12:00:28.315Z,51.74
2022-08-19T12:02:58.102Z,51.27
2022-08-19T12:05:27.882Z,51.29
2022-08-19T12:07:57.671Z,50.63
2022-08-19T12:10:27.792Z,50.81
2022-08-19T12:12:58.985Z,48.87
2022-08-19T12:15:37.268Z,47.65
2022-08-19T12:18:01.520Z,46.40
2022-08-19T12:20:35.473Z,46.60
2022-08-19T12:23:06.144Z,46.08
2022-08-19T12:25:35.834Z,46.08
2022-08-19T12:28:06.730Z,46.48
2022-08-19T12:30:39.828Z,47.56
2022-08-19T12:33:09.847Z,47.08
2022-08-19T12:35:45.541Z,45.69
2022-08-19T12:38:15.542Z,45.47
2022-08-19T12:40:51.965Z,45.47
2022-08-19T12:43:22.422Z,46.30
2022-08-19T12:45:52.389Z,44.74
2022-08-19T12:48:33.843Z,44.02
2022-08-19T12:50:55.057Z,43.21
2022-08-19T12:53:25.739Z,43.09
2022-08-19T12:56:00.663Z,42.57
2022-08-19T12:58:30.775Z,42.60
2022-08-19T13:01:00.620Z,42.32
2022-08-19T13:03:30.506Z,42.18
2022-08-19T13:06:00.300Z,42.44
2022-08-19T13:08:31.614Z,41.92
2022-08-19T13:11:11.794Z,41.47
2022-08-19T13:13:44.319Z,42.63
2022-08-19T13:16:15.537Z,42.48
2022-08-19T13:18:49.009Z,42.88
2022-08-19T13:21:20.666Z,42.88
2022-08-19T13:23:53.366Z,42.85
2022-08-19T13:26:23.687Z,43.58
2022-08-19T13:29:11.441Z,43.82
2022-08-19T13:32:00.904Z,45.06
2022-08-19T13:34:36.431Z,45.87
2022-08-19T13:37:07.243Z,45.70
2022-08-19T13:39:37.747Z,44.41
2022-08-19T13:42:11.295Z,43.13
2022-08-19T13:44:41.094Z,44.35
2022-08-19T13:47:12.823Z,44.47
2022-08-19T13:49:42.975Z,45.23
2022-08-19T13:52:13.690Z,46.24
2022-08-19T13:54:44.307Z,46.56
2022-08-19T13:57:15.836Z,48.05
2022-08-19T13:59:45.644Z,47.90
2022-08-19T14:02:15.717Z,48.60
2022-08-19T14:04:45.512Z,48.96
2022-08-19T14:07:15.379Z,49.29
2022-08-19T14:09:45.162Z,49.87
2022-08-19T14:12:18.145Z,50.38
2022-08-19T14:14:49.789Z,51.00
2022-08-19T14:17:19.644Z,51.74
2022-08-19T14:19:49.429Z,51.81
2022-08-19T14:22:22.260Z,51.13
2022-08-19T14:24:51.152Z,49.83
2022-08-19T14:27:20.651Z,51.29
2022-08-19T14:29:50.435Z,50.80
2022-08-19T14:32:20.293Z,49.69
2022-08-19T14:34:50.140Z,49.69
2022-08-19T14:37:20.296Z,49.02
2022-08-19T14:39:50.981Z,49.47
2022-08-19T14:42:20.859Z,50.59
2022-08-19T14:44:50.954Z,51.27
2022-08-19T14:47:20.726Z,51.27
2022-08-19T14:49:52.214Z,52.07
2022-08-19T14:52:22.899Z,53.71
2022-08-19T14:54:52.425Z,52.97
2022-08-19T14:57:22.203Z,52.17
2022-08-19T14:59:52.002Z,51.38
2022-08-19T15:02:34.649Z,51.66
2022-08-19T15:04:58.151Z,50.98
2022-08-19T15:07:24.473Z,51.57
2022-08-19T15:09:56.302Z,52.01
2022-08-19T15:12:26.320Z,52.63
2022-08-19T15:14:57.039Z,52.41
2022-08-19T15:17:43.511Z,52.32
2022-08-19T15:19:58.677Z,52.60
2022-08-19T15:22:28.215Z,51.36
2022-08-19T15:24:58.001Z,50.43
2022-08-19T15:27:28.818Z,50.43
2022-08-19T15:30:01.176Z,51.98
2022-08-19T15:32:31.808Z,51.80
2022-08-19T15:35:03.345Z,52.82
2022-08-19T15:37:36.969Z,52.94
2022-08-19T15:40:08.959Z,53.10
2022-08-19T15:42:41.749Z,52.53
2022-08-19T15:45:13.179Z,52.14
2022-08-19T15:47:43.390Z,52.07
2022-08-19T15:50:17.385Z,51.79
2022-08-19T15:52:52.716Z,52.48
2022-08-19T15:55:33.521Z,51.42
2022-08-19T15:58:24.163Z,50.77
2022-08-19T16:01:03.023Z,51.73
2022-08-19T16:03:50.835Z,51.73
2022-08-19T16:06:27.818Z,53.25
2022-08-19T16:09:01.843Z,51.70
2022-08-19T16:11:39.371Z,52.46
2022-08-19T16:14:09.197Z,52.27
2022-08-19T16:16:39.316Z,52.60
2022-08-19T16:19:12.012Z,53.34
2022-08-19T16:21:42.167Z,53.58
2022-08-19T16:24:14.561Z,53.70
2022-08-19T16:26:46.041Z,53.60
2022-08-19T16:29:22.061Z,53.61
2022-08-19T16:31:49.760Z,54.56
2022-08-19T16:34:19.227Z,54.85
2022-08-19T16:36:49.638Z,55.15
2022-08-19T16:39:19.868Z,55.89
2022-08-19T16:41:49.636Z,57.81
2022-08-19T16:44:20.803Z,58.43
2022-08-19T16:46:57.225Z,58.96
2022-08-19T16:49:53.438Z,59.02
2022-08-19T16:51:56.012Z,60.45
2022-08-19T16:54:30.722Z,60.84
2022-08-19T16:56:58.105Z,61.55
2022-08-19T16:59:28.168Z,62.21
2022-08-19T17:01:57.990Z,62.35
2022-08-19T17:04:27.492Z,62.39
2022-08-19T17:06:57.253Z,62.94
2022-08-19T17:09:27.090Z,62.33
2022-08-19T17:11:58.723Z,62.16
2022-08-19T17:14:28.209Z,62.13
2022-08-19T17:16:57.979Z,61.38
2022-08-19T17:19:28.295Z,61.22
2022-08-19T17:21:58.352Z,61.61
2022-08-19T17:24:27.829Z,61.63
2022-08-19T17:26:57.410Z,61.20
2022-08-19T17:29:27.443Z,61.08
2022-08-19T17:31:57.207Z,60.70
2022-08-19T17:34:26.683Z,61.25
2022-08-19T17:36:59.047Z,60.67
2022-08-19T17:39:29.187Z,59.53
2022-08-19T17:42:02.528Z,58.61
2022-08-19T17:44:30.419Z,58.16
2022-08-19T17:47:00.188Z,59.21
2022-08-19T17:49:29.963Z,59.69
2022-08-19T17:52:01.566Z,60.34
2022-08-19T17:54:33.831Z,60.34
2022-08-19T17:57:02.891Z,62.14
2022-08-19T17:59:32.741Z,63.71
2022-08-19T18:02:02.629Z,66.13
2022-08-19T18:04:33.507Z,67.09
2022-08-19T18:07:04.228Z,67.80
2022-08-19T18:09:41.414Z,68.08
2022-08-19T18:12:11.732Z,67.75
2022-08-19T18:14:42.042Z,67.57
2022-08-19T18:17:13.662Z,67.57
2022-08-19T18:19:44.845Z,67.32
2022-08-19T18:22:26.518Z,67.14
2022-08-19T18:24:58.298Z,67.76
2022-08-19T18:27:28.690Z,68.62
2022-08-19T18:29:59.669Z,68.38
2022-08-19T18:32:36.608Z,69.14
2022-08-19T18:35:11.041Z,69.20
2022-08-19T18:37:42.236Z,69.31
2022-08-19T18:40:37.973Z,69.36
2022-08-19T18:43:15.782Z,69.63
2022-08-19T18:46:03.730Z,69.88
2022-08-19T18:48:53.425Z,70.38
2022-08-19T18:51:28.448Z,69.80
2022-08-19T18:53:58.631Z,70.05
2022-08-19T18:56:32.119Z,69.82
2022-08-19T18:59:02.496Z,70.93
2022-08-19T19:01:38.625Z,72.01
2022-08-19T19:04:11.338Z,72.01
2022-08-19T19:06:42.770Z,72.70
2022-08-19T19:09:18.085Z,74.07
2022-08-19T19:11:51.135Z,73.02
2022-08-19T19:14:48.043Z,71.70
2022-08-19T19:17:01.806Z,72.38
2022-08-19T19:19:33.330Z,72.26
2022-08-19T19:22:04.923Z,73.61
2022-08-19T19:24:36.809Z,72.73
2022-08-19T19:27:08.592Z,72.35
2022-08-19T19:29:39.313Z,72.99
2022-08-19T19:32:14.106Z,72.27
2022-08-19T19:34:43.962Z,71.81
2022-08-19T19:37:13.800Z,71.61
2022-08-19T19:39:46.102Z,72.12
2022-08-19T19:42:20.993Z,73.65
2022-08-19T19:44:54.626Z,73.65
2022-08-19T19:47:25.578Z,74.89
2022-08-19T19:50:14.866Z,74.73
2022-08-19T19:52:27.858Z,74.83
2022-08-19T19:54:57.650Z,75.88
2022-08-19T19:57:29.181Z,75.57
2022-08-19T19:59:59.309Z,76.07
2022-08-19T20:02:29.150Z,75.82
2022-08-19T20:04:59.090Z,75.39
2022-08-19T20:07:46.689Z,75.02
2022-08-19T20:10:17.327Z,74.70
2022-08-19T20:12:47.094Z,73.77
2022-08-19T20:15:16.937Z,75.10
2022-08-19T20:17:47.363Z,74.28
2022-08-19T20:20:19.247Z,73.35
2022-08-19T20:22:49.079Z,75.21
2022-08-19T20:25:22.204Z,73.81
2022-08-19T20:27:52.417Z,74.01
2022-08-19T20:30:24.824Z,74.30
2022-08-19T20:32:56.420Z,74.52
2022-08-19T20:35:26.672Z,74.84
2022-08-19T20:37:58.356Z,75.60
2022-08-19T20:40:29.965Z,75.74
2022-08-19T20:42:59.437Z,75.83
2022-08-19T20:45:33.007Z,75.75
2022-08-19T20:48:02.392Z,75.88
2022-08-19T20:50:34.841Z,75.22
2022-08-19T20:53:16.259Z,74.88
2022-08-19T20:55:50.000Z,74.21
2022-08-19T20:58:21.909Z,73.77
2022-08-19T21:00:56.036Z,73.84
2022-08-19T21:03:28.592Z,74.02
2022-08-19T21:05:58.704Z,74.67
2022-08-19T21:08:28.617Z,74.75
2022-08-19T21:10:59.220Z,74.83
2022-08-19T21:13:29.429Z,74.92
2022-08-19T21:15:59.272Z,74.71
2022-08-19T21:18:28.825Z,74.29
2022-08-19T21:20:59.085Z,75.14
2022-08-19T21:23:30.958Z,74.66
2022-08-19T21:26:01.955Z,74.26
2022-08-19T21:28:35.774Z,73.54
2022-08-19T21:31:03.913Z,73.16
2022-08-19T21:33:34.345Z,73.15
2022-08-19T21:36:07.042Z,74.33
2022-08-19T21:38:37.940Z,73.55
2022-08-19T21:41:08.163Z,73.14
2022-08-19T21:43:38.690Z,73.94
2022-08-19T21:46:10.877Z,73.73
2022-08-19T21:48:41.891Z,73.96
2022-08-19T21:51:11.673Z,73.52
2022-08-19T21:53:41.493Z,73.36
2022-08-19T21:56:12.963Z,73.36
2022-08-19T21:58:42.737Z,73.77
2022-08-19T22:01:12.860Z,74.01
2022-08-19T22:03:43.201Z,73.92
2022-08-19T22:06:12.666Z,73.46
2022-08-19T22:08:44.159Z,73.19
2022-08-19T22:11:13.654Z,73.47
2022-08-19T22:13:43.441Z,73.38
2022-08-19T22:16:14.206Z,73.38
2022-08-19T22:18:44.336Z,73.91
2022-08-19T22:21:14.486Z,73.91
2022-08-19T22:23:47.498Z,74.17
2022-08-19T22:26:18.709Z,73.75
2022-08-19T22:28:48.485Z,73.49
2022-08-19T22:31:19.446Z,72.43
2022-08-19T22:33:49.219Z,72.91
2022-08-19T22:36:19.127Z,73.08
2022-08-19T22:38:48.898Z,72.66
2022-08-19T22:41:18.673Z,72.66
2022-08-19T22:43:48.532Z,72.59
2022-08-19T22:46:18.307Z,72.51
2022-08-19T22:48:55.971Z,72.75
2022-08-19T22:51:38.055Z,72.75
2022-08-19T22:54:07.797Z,72.53
2022-08-19T22:56:37.438Z,72.72
2022-08-19T22:59:08.390Z,73.21
2022-08-19T23:01:38.342Z,72.97
2022-08-19T23:04:09.931Z,73.00
2022-08-19T23:06:42.203Z,72.72
2022-08-19T23:09:16.682Z,72.68
2022-08-19T23:11:43.439Z,72.25
2022-08-19T23:14:14.331Z,72.72
2022-08-19T23:16:50.432Z,73.22
2022-08-19T23:19:17.313Z,72.79
2022-08-19T23:21:47.738Z,72.79
2022-08-19T23:24:17.527Z,72.76
2022-08-19T23:27:05.236Z,72.57
2022-08-19T23:29:55.597Z,72.52
2022-08-19T23:32:25.645Z,73.13
2022-08-19T23:34:57.674Z,72.92
2022-08-19T23:37:29.141Z,72.45
2022-08-19T23:39:58.995Z,72.86
2022-08-19T23:42:28.757Z,72.71
2022-08-19T23:45:03.881Z,73.55
2022-08-19T23:47:34.494Z,73.55
2022-08-19T23:50:07.952Z,73.15
2022-08-19T23:52:46.827Z,73.35
2022-08-19T23:55:18.345Z,73.36
2022-08-19T23:57:47.829Z,73.29
